Time;durP1;ratioP1;P1;durP2;ratioP2;P2;SDS_P1;SDS_P2;PMS_P1;PMS_P2;Temp;Humidity;BMP_temperature;BMP_pressure;BME280_temperature;BME280_humidity;BME280_pressure;Samples;Min_cycle;Max_cycle;Signal;HPM_P1;HPM_P2
2023/04/02 00:00:09;;;;;;;;;;;;;;;12.25;63.57;99770.19;4957115;28;8478;-85
2023/04/02 00:02:53;;;;;;;;;;;;;;;12.22;63.46;99782.13;4948008;28;11602;-85
2023/04/02 00:05:50;;;;;;;;;;;;;;;12.19;63.56;99786.28;4946407;28;8466;-85
2023/04/02 00:08:28;;;;;;;;;;;;;;;12.15;62.85;99790.44;4954543;28;9728;-85
2023/04/02 00:11:00;;;;;;;;;;;;;;;12.11;63.15;99787.72;4940937;28;8738;-84
2023/04/02 00:13:42;;;;;;;;;;;;;;;12.10;63.41;99793.69;4941967;28;8472;-84
2023/04/02 00:16:15;;;;;;;;;;;;;;;12.06;62.75;99801.28;4954175;28;7218;-83
2023/04/02 00:18:54;;;;;;;;;;;;;;;12.04;62.71;99802.94;4968311;28;7011;-85
2023/04/02 00:21:26;;;;;;;;;;;;;;;12.01;63.01;99800.25;4935091;28;8975;-84
2023/04/02 00:23:54;;;;;;;;;;;;;;;11.97;63.09;99816.34;4954774;28;7170;-85
2023/04/02 00:26:27;;;;;;;;;;;;;;;11.95;62.67;99820.56;4954131;28;7059;-84
2023/04/02 00:28:53;;;;;;;;;;;;;;;11.93;63.01;99838.53;4940209;28;8403;-84
2023/04/02 00:31:20;;;;;;;;;;;;;;;11.88;63.26;99826.31;4944617;28;6952;-85
2023/04/02 00:33:48;;;;;;;;;;;;;;;11.86;62.97;99833.09;4954358;28;7084;-84
2023/04/02 00:36:18;;;;;;;;;;;;;;;11.83;63.25;99830.44;4944748;28;8399;-85
2023/04/02 00:38:46;;;;;;;;;;;;;;;11.79;62.61;99834.59;4957197;28;8434;-85
2023/04/02 00:41:20;;;;;;;;;;;;;;;11.76;62.71;99837.06;4953299;28;8677;-86
2023/04/02 00:43:50;;;;;;;;;;;;;;;11.73;63.01;99842.97;4943178;28;7214;-84
2023/04/02 00:46:22;;;;;;;;;;;;;;;11.71;62.89;99844.63;4923305;28;8445;-85
2023/04/02 00:49:06;;;;;;;;;;;;;;;11.71;62.86;99849.75;4946192;28;6801;-84
2023/04/02 00:51:44;;;;;;;;;;;;;;;11.72;63.12;99855.75;4954979;28;7211;-85
2023/04/02 00:54:15;;;;;;;;;;;;;;;11.72;62.53;99859.19;4947234;28;6953;-84
2023/04/02 00:56:54;;;;;;;;;;;;;;;11.72;63.08;99872.03;4942953;28;8884;-84
2023/04/02 01:00:14;;;;;;;;;;;;;;;11.71;63.34;99860.03;4932798;28;8550;-85
2023/04/02 01:02:41;;;;;;;;;;;;;;;11.70;63.03;99873.69;4940021;28;11234;-85
2023/04/02 01:05:16;;;;;;;;;;;;;;;11.67;63.05;99881.25;4962184;28;7634;-84
2023/04/02 01:08:08;;;;;;;;;;;;;;;11.65;62.93;99870.06;4948546;28;7274;-84
2023/04/02 01:10:36;;;;;;;;;;;;;;;11.65;63.29;99885.47;4941400;28;8443;-84
2023/04/02 01:13:26;;;;;;;;;;;;;;;11.64;62.96;99888.84;4948461;28;8396;-85
2023/04/02 01:16:10;;;;;;;;;;;;;;;11.61;63.46;99884.47;4954866;28;8365;-84
2023/04/02 01:18:45;;;;;;;;;;;;;;;11.63;63.33;99892.25;4949360;28;8422;-85
2023/04/02 01:21:56;;;;;;;;;;;;;;;11.61;62.83;99897.31;4949768;28;7301;-84
2023/04/02 01:24:31;;;;;;;;;;;;;;;11.57;63.20;99895.47;4945483;28;8932;-85
2023/04/02 01:27:17;;;;;;;;;;;;;;;11.57;63.09;99907.41;4951046;28;7047;-84
2023/04/02 01:29:57;;;;;;;;;;;;;;;11.54;62.62;99908.19;4954477;28;8357;-84
2023/04/02 01:32:27;;;;;;;;;;;;;;;11.53;62.72;99914.13;4944567;28;6987;-85
2023/04/02 01:34:56;;;;;;;;;;;;;;;11.49;62.92;99919.97;4968307;28;6996;-86
2023/04/02 01:37:52;;;;;;;;;;;;;;;11.46;62.73;99922.44;4948354;28;7206;-85
2023/04/02 01:40:46;;;;;;;;;;;;;;;11.41;62.81;99927.41;4965601;28;8409;-85
2023/04/02 01:43:14;;;;;;;;;;;;;;;11.36;62.82;99931.47;4958813;28;7154;-84
2023/04/02 01:45:40;;;;;;;;;;;;;;;11.31;62.66;99935.59;4950329;28;8415;-85
2023/04/02 01:48:18;;;;;;;;;;;;;;;11.27;62.32;99949.09;4941225;28;8563;-84
2023/04/02 01:50:50;;;;;;;;;;;;;;;11.25;62.38;99954.16;4957937;28;8491;-86
2023/04/02 01:53:19;;;;;;;;;;;;;;;11.25;63.03;99961.84;4933713;28;8518;-85
2023/04/02 01:55:56;;;;;;;;;;;;;;;11.22;62.85;99959.19;4931578;28;8613;-85
2023/04/02 01:58:27;;;;;;;;;;;;;;;11.19;62.55;99959.94;4957164;28;7197;-84
2023/04/02 02:01:02;;;;;;;;;;;;;;;11.19;62.59;99965.06;4944248;28;6833;-86
2023/04/02 02:03:28;;;;;;;;;;;;;;;11.19;62.61;99971.91;4963789;28;7077;-85
2023/04/02 02:05:55;;;;;;;;;;;;;;;11.19;63.04;99983.00;4950634;28;7776;-85
2023/04/02 02:08:38;;;;;;;;;;;;;;;11.18;62.71;99981.25;4947166;28;7180;-86
2023/04/02 02:11:07;;;;;;;;;;;;;;;11.18;62.58;99995.78;4947598;28;8747;-85
2023/04/02 02:13:32;;;;;;;;;;;;;;;11.17;62.61;99992.34;4954668;28;7402;-85
2023/04/02 02:16:02;;;;;;;;;;;;;;;11.15;62.58;99995.66;4945532;28;7166;-85
2023/04/02 02:18:28;;;;;;;;;;;;;;;11.15;62.59;99998.22;4933398;28;8425;-85
2023/04/02 02:20:59;;;;;;;;;;;;;;;11.11;62.92;100010.94;4967366;28;7025;-84
2023/04/02 02:23:28;;;;;;;;;;;;;;;11.10;62.87;100016.00;4963514;28;6800;-84
2023/04/02 02:25:55;;;;;;;;;;;;;;;11.09;62.50;100016.81;4954093;28;8425;-89
2023/04/02 02:28:35;;;;;;;;;;;;;;;11.06;62.35;100009.00;4956198;28;8774;-88
2023/04/02 02:31:06;;;;;;;;;;;;;;;11.04;62.41;100013.22;4956230;28;6976;-88
2023/04/02 02:33:44;;;;;;;;;;;;;;;11.05;62.74;100031.19;4964645;28;7016;-89
2023/04/02 02:36:19;;;;;;;;;;;;;;;11.02;62.61;100036.22;4970840;28;7046;-89
2023/04/02 02:39:29;;;;;;;;;;;;;;;11.00;62.38;100040.41;4968562;28;6991;-89
2023/04/02 02:42:45;;;;;;;;;;;;;;;10.97;62.15;100037.75;4942432;28;8520;-85
2023/04/02 02:45:28;;;;;;;;;;;;;;;10.95;62.46;100042.78;4952267;28;7043;-85
2023/04/02 02:47:57;;;;;;;;;;;;;;;10.95;62.31;100053.06;4951766;28;8995;-85
2023/04/02 02:50:30;;;;;;;;;;;;;;;10.94;62.61;100059.00;4952578;28;7376;-86
2023/04/02 02:53:02;;;;;;;;;;;;;;;10.93;62.27;100057.25;4950954;28;6961;-85
2023/04/02 02:55:35;;;;;;;;;;;;;;;10.92;62.60;100062.31;4950941;28;7189;-85
2023/04/02 02:58:21;;;;;;;;;;;;;;;10.90;62.30;100075.03;4944470;28;8423;-85
2023/04/02 03:00:48;;;;;;;;;;;;;;;10.87;62.04;100080.06;4947322;28;6973;-85
2023/04/02 03:03:27;;;;;;;;;;;;;;;10.84;62.33;100085.94;4943110;28;6988;-84
2023/04/02 03:06:09;;;;;;;;;;;;;;;10.84;62.51;100088.50;4950242;28;7405;-85
2023/04/02 03:09:11;;;;;;;;;;;;;;;10.84;62.15;100092.75;4927436;28;8483;-86
2023/04/02 03:11:50;;;;;;;;;;;;;;;10.81;62.03;100095.16;4944427;28;7076;-85
2023/04/02 03:14:41;;;;;;;;;;;;;;;10.82;62.55;100104.66;4946013;28;6986;-84
2023/04/02 03:17:24;;;;;;;;;;;;;;;10.80;62.34;100106.25;4927645;28;8736;-84
2023/04/02 03:20:22;;;;;;;;;;;;;;;10.78;62.19;100115.56;4950187;28;8475;-84
2023/04/02 03:23:13;;;;;;;;;;;;;;;10.75;61.83;100118.00;4944061;28;8846;-85
2023/04/02 03:26:00;;;;;;;;;;;;;;;10.71;62.00;100132.38;4946880;28;7217;-84
2023/04/02 03:28:34;;;;;;;;;;;;;;;10.67;61.99;100131.34;4938099;28;8430;-85
2023/04/02 03:31:15;;;;;;;;;;;;;;;10.65;62.15;100134.66;4920635;28;8509;-85
2023/04/02 03:33:49;;;;;;;;;;;;;;;10.62;62.23;100135.44;4948385;28;7187;-86
2023/04/02 03:36:42;;;;;;;;;;;;;;;10.60;62.16;100159.22;4943661;28;8495;-84
2023/04/02 03:39:58;;;;;;;;;;;;;;;10.57;61.95;100159.97;4955563;28;7045;-85
2023/04/02 03:42:25;;;;;;;;;;;;;;;10.52;61.97;100170.00;4930695;28;8512;-85
2023/04/02 03:45:15;;;;;;;;;;;;;;;10.51;61.93;100177.63;4941190;28;7390;-85
2023/04/02 03:48:05;;;;;;;;;;;;;;;10.47;61.78;100183.44;4934917;28;8511;-85
2023/04/02 03:51:15;;;;;;;;;;;;;;;10.46;61.90;100189.38;4932461;28;8461;-85
2023/04/02 03:53:44;;;;;;;;;;;;;;;10.41;62.03;100194.25;4936843;28;7192;-84
2023/04/02 03:56:31;;;;;;;;;;;;;;;10.40;61.35;100201.03;4944198;28;8449;-85
2023/04/02 03:59:21;;;;;;;;;;;;;;;10.39;62.06;100212.09;4927539;28;8867;-85
2023/04/02 04:02:24;;;;;;;;;;;;;;;10.38;61.77;100215.47;4934360;28;6911;-86
2023/04/02 04:04:54;;;;;;;;;;;;;;;10.38;61.56;100230.84;4944236;28;7782;-85
2023/04/02 04:07:49;;;;;;;;;;;;;;;10.40;61.48;100229.22;4926905;28;8480;-85
2023/04/02 04:10:26;;;;;;;;;;;;;;;10.38;61.42;100235.97;4943199;28;7037;-86
2023/04/02 04:13:02;;;;;;;;;;;;;;;10.40;61.20;100239.47;4935518;28;8761;-85
2023/04/02 04:15:57;;;;;;;;;;;;;;;10.41;61.43;100242.94;4947995;28;6975;-85
2023/04/02 04:19:02;;;;;;;;;;;;;;;10.41;61.51;100248.94;4946379;28;7351;-84
2023/04/02 04:21:38;;;;;;;;;;;;;;;10.42;61.96;100250.69;4928844;28;7403;-86
2023/04/02 04:24:16;;;;;;;;;;;;;;;10.44;61.08;100249.91;4938456;28;8508;-86
2023/04/02 04:27:16;;;;;;;;;;;;;;;10.41;60.95;100266.88;4947286;28;7205;-86
2023/04/02 04:29:56;;;;;;;;;;;;;;;10.37;60.93;100280.34;4947138;28;6981;-85
2023/04/02 04:32:32;;;;;;;;;;;;;;;10.32;60.77;100268.13;4951058;28;8413;-85
2023/04/02 04:35:27;;;;;;;;;;;;;;;10.27;60.87;100280.72;4950407;28;8523;-85
2023/04/02 04:38:14;;;;;;;;;;;;;;;10.25;60.82;100278.06;4945449;28;6840;-85
2023/04/02 04:41:05;;;;;;;;;;;;;;;10.23;61.57;100281.34;4949971;28;8945;-85
2023/04/02 04:44:14;;;;;;;;;;;;;;;10.22;61.80;100294.97;4959159;28;7221;-87
2023/04/02 04:46:50;;;;;;;;;;;;;;;10.21;61.00;100290.66;4964629;28;8385;-86
2023/04/02 04:49:53;;;;;;;;;;;;;;;10.18;60.72;100301.63;4924511;28;8722;-85
2023/04/02 04:52:35;;;;;;;;;;;;;;;10.15;60.83;100291.25;4942937;28;6993;-85
2023/04/02 04:55:00;;;;;;;;;;;;;;;10.13;61.05;100311.66;4939178;28;6997;-86
2023/04/02 04:57:38;;;;;;;;;;;;;;;10.15;60.97;100319.41;4965509;28;6949;-85
2023/04/02 05:00:49;;;;;;;;;;;;;;;10.11;60.47;100326.06;4936497;28;6872;-86
2023/04/02 05:03:39;;;;;;;;;;;;;;;10.11;61.17;100343.13;4949704;28;10972;-85
2023/04/02 05:06:22;;;;;;;;;;;;;;;10.13;60.42;100354.31;4962671;28;7054;-85
2023/04/02 05:08:54;;;;;;;;;;;;;;;10.12;60.98;100353.44;4945642;28;6968;-85
2023/04/02 05:11:46;;;;;;;;;;;;;;;10.13;60.56;100357.75;4961723;28;7268;-84
2023/04/02 05:14:28;;;;;;;;;;;;;;;10.14;60.40;100377.47;4936500;28;8485;-84
2023/04/02 05:17:24;;;;;;;;;;;;;;;10.16;60.51;100379.22;4961930;28;8389;-84
2023/04/02 05:20:24;;;;;;;;;;;;;;;10.14;60.15;100380.03;4946332;28;7709;-84
2023/04/02 05:23:08;;;;;;;;;;;;;;;10.11;60.28;100395.22;4944316;28;6954;-84
2023/04/02 05:25:34;;;;;;;;;;;;;;;10.09;60.65;100398.50;4950833;28;7068;-84
2023/04/02 05:28:17;;;;;;;;;;;;;;;10.06;60.35;100401.81;4963494;28;6954;-84
2023/04/02 05:31:07;;;;;;;;;;;;;;;10.03;59.84;100406.75;4945571;28;7209;-84
2023/04/02 05:33:36;;;;;;;;;;;;;;;9.97;59.65;100406.47;4963396;28;7194;-85
2023/04/02 05:36:17;;;;;;;;;;;;;;;9.93;59.94;100409.66;4941003;28;7149;-84
2023/04/02 05:38:46;;;;;;;;;;;;;;;9.92;59.87;100415.56;4947776;28;7195;-84
2023/04/02 05:41:35;;;;;;;;;;;;;;;9.89;60.26;100408.59;4937811;28;8790;-86
2023/04/02 05:44:19;;;;;;;;;;;;;;;9.86;60.22;100418.69;4943508;28;8785;-82
2023/04/02 05:46:53;;;;;;;;;;;;;;;9.84;60.22;100412.63;4946283;28;6978;-82
2023/04/02 05:49:46;;;;;;;;;;;;;;;9.84;59.65;100421.19;4937309;28;8833;-83
2023/04/02 05:52:25;;;;;;;;;;;;;;;9.85;59.55;100433.22;4951979;28;7043;-84
2023/04/02 05:54:55;;;;;;;;;;;;;;;9.84;60.21;100423.72;4947985;28;6858;-84
2023/04/02 05:57:37;;;;;;;;;;;;;;;9.86;59.71;100434.97;4945835;28;6846;-83
2023/04/02 06:00:14;;;;;;;;;;;;;;;9.84;60.06;100441.66;4950069;28;7014;-83
2023/04/02 06:02:58;;;;;;;;;;;;;;;9.86;60.13;100455.44;4960298;28;11298;-83
2023/04/02 06:05:39;;;;;;;;;;;;;;;9.83;60.07;100462.06;4949180;28;8774;-84
2023/04/02 06:08:20;;;;;;;;;;;;;;;9.81;59.97;100463.69;4941167;28;6970;-83
2023/04/02 06:11:00;;;;;;;;;;;;;;;9.77;60.48;100467.75;4959611;28;6804;-85
2023/04/02 06:13:27;;;;;;;;;;;;;;;9.75;59.83;100477.00;4933115;28;8698;-84
2023/04/02 06:15:53;;;;;;;;;;;;;;;9.73;59.76;100479.50;4935019;28;8490;-85
2023/04/02 06:18:26;;;;;;;;;;;;;;;9.71;59.83;100493.03;4949514;28;6958;-83
2023/04/02 06:20:52;;;;;;;;;;;;;;;9.71;59.26;100493.91;4961900;28;7189;-83
2023/04/02 06:23:32;;;;;;;;;;;;;;;9.70;59.84;100509.19;4921680;28;8365;-83
2023/04/02 06:26:22;;;;;;;;;;;;;;;9.67;60.02;100519.25;4950325;28;7343;-84
2023/04/02 06:29:14;;;;;;;;;;;;;;;9.63;60.44;100510.53;4947212;28;7365;-84
2023/04/02 06:31:57;;;;;;;;;;;;;;;9.61;59.50;100521.47;4934828;28;8859;-83
2023/04/02 06:34:26;;;;;;;;;;;;;;;9.58;59.66;100530.75;4938554;28;8774;-84
2023/04/02 06:37:20;;;;;;;;;;;;;;;9.58;59.90;100533.31;4942724;28;8362;-84
2023/04/02 06:39:45;;;;;;;;;;;;;;;9.55;60.64;100545.94;4953797;28;8864;-85
2023/04/02 06:42:37;;;;;;;;;;;;;;;9.54;59.30;100546.72;4960302;28;6952;-82
2023/04/02 06:45:04;;;;;;;;;;;;;;;9.54;60.48;100549.28;4956758;28;8048;-83
2023/04/02 06:47:41;;;;;;;;;;;;;;;9.56;60.38;100560.50;4968814;28;6804;-84
2023/04/02 06:50:15;;;;;;;;;;;;;;;9.58;59.79;100566.59;4969336;28;6938;-84
2023/04/02 06:52:52;;;;;;;;;;;;;;;9.58;59.91;100570.81;4952343;28;8868;-83
2023/04/02 06:55:39;;;;;;;;;;;;;;;9.57;60.15;100584.41;4966852;28;7322;-83
2023/04/02 06:58:05;;;;;;;;;;;;;;;9.54;60.12;100591.94;4968699;28;7300;-84
2023/04/02 07:00:44;;;;;;;;;;;;;;;9.50;59.02;100588.31;4956377;28;7206;-85
2023/04/02 07:03:31;;;;;;;;;;;;;;;9.45;59.77;100597.41;4951664;28;7000;-85
2023/04/02 07:06:00;;;;;;;;;;;;;;;9.42;58.90;100600.69;4953019;28;8459;-83
2023/04/02 07:08:26;;;;;;;;;;;;;;;9.40;59.17;100604.81;4966147;28;7458;-82
2023/04/02 07:10:57;;;;;;;;;;;;;;;9.40;59.30;100616.75;4963578;28;7172;-84
2023/04/02 07:13:24;;;;;;;;;;;;;;;9.39;60.16;100632.88;4955030;28;7333;-83
2023/04/02 07:15:53;;;;;;;;;;;;;;;9.37;59.37;100629.38;4952707;28;6797;-83
2023/04/02 07:18:30;;;;;;;;;;;;;;;9.34;59.90;100634.28;4966384;28;6992;-84
2023/04/02 07:20:56;;;;;;;;;;;;;;;9.35;59.78;100638.59;4953471;28;6962;-84
2023/04/02 07:23:22;;;;;;;;;;;;;;;9.36;59.33;100645.47;4949501;28;8515;-84
2023/04/02 07:25:51;;;;;;;;;;;;;;;9.36;60.12;100654.06;4958415;28;8412;-83
2023/04/02 07:28:17;;;;;;;;;;;;;;;9.37;59.44;100657.50;4964270;28;6804;-84
2023/04/02 07:30:45;;;;;;;;;;;;;;;9.36;59.12;100654.06;4942394;28;6938;-84
2023/04/02 07:33:16;;;;;;;;;;;;;;;9.37;59.85;100657.50;4926049;28;7693;-85
2023/04/02 07:35:42;;;;;;;;;;;;;;;9.38;59.51;100655.00;4955038;28;8548;-84
2023/04/02 07:38:08;;;;;;;;;;;;;;;9.42;59.71;100664.66;4966838;28;6859;-85
2023/04/02 07:40:34;;;;;;;;;;;;;;;9.44;59.75;100673.28;4956210;28;8394;-85
2023/04/02 07:43:00;;;;;;;;;;;;;;;9.44;59.75;100677.50;4953465;28;6796;-86
2023/04/02 07:45:26;;;;;;;;;;;;;;;9.42;59.38;100684.22;4966859;28;6957;-86
2023/04/02 07:47:53;;;;;;;;;;;;;;;9.40;59.74;100688.38;4951433;28;8791;-84
2023/04/02 07:50:19;;;;;;;;;;;;;;;9.37;59.83;100706.13;4951071;28;8659;-86
2023/04/02 07:52:45;;;;;;;;;;;;;;;9.34;59.56;100708.47;4953495;28;6980;-86
2023/04/02 07:55:14;;;;;;;;;;;;;;;9.31;59.44;100712.63;4927916;28;6966;-85
2023/04/02 07:57:56;;;;;;;;;;;;;;;9.27;59.39;100713.25;4958579;28;8436;-85
2023/04/02 08:00:23;;;;;;;;;;;;;;;9.23;58.99;100716.41;4949172;28;6841;-83
2023/04/02 08:02:50;;;;;;;;;;;;;;;9.22;59.74;100716.31;4937663;28;8441;-83
2023/04/02 08:05:16;;;;;;;;;;;;;;;9.21;58.54;100720.56;4962704;28;8402;-83
2023/04/02 08:07:43;;;;;;;;;;;;;;;9.20;59.03;100725.56;4946329;28;8438;-84
2023/04/02 08:10:11;;;;;;;;;;;;;;;9.22;59.34;100739.31;4974503;28;6792;-86
2023/04/02 08:12:37;;;;;;;;;;;;;;;9.21;58.91;100738.47;4976050;28;7098;-83
2023/04/02 08:15:05;;;;;;;;;;;;;;;9.24;58.80;100751.41;4974595;28;7014;-84
2023/04/02 08:17:32;;;;;;;;;;;;;;;9.23;58.63;100747.09;4972779;28;7103;-84
2023/04/02 08:20:00;;;;;;;;;;;;;;;9.23;59.84;100752.22;4973170;28;6806;-84
2023/04/02 08:22:28;;;;;;;;;;;;;;;9.26;59.42;100754.06;4958877;28;6981;-85
2023/04/02 08:24:53;;;;;;;;;;;;;;;9.27;58.27;100753.28;4939944;28;8554;-84
2023/04/02 08:27:19;;;;;;;;;;;;;;;9.28;59.67;100765.28;4968824;28;6948;-83
2023/04/02 08:29:45;;;;;;;;;;;;;;;9.31;59.32;100751.00;4944185;28;8429;-82
2023/04/02 08:32:15;;;;;;;;;;;;;;;9.35;58.93;100769.06;4956134;28;8498;-82
2023/04/02 08:34:42;;;;;;;;;;;;;;;9.37;58.62;100770.06;4937720;28;8540;-82
2023/04/02 08:37:10;;;;;;;;;;;;;;;9.38;59.21;100780.38;4943530;28;8508;-81
2023/04/02 08:39:36;;;;;;;;;;;;;;;9.41;58.02;100789.91;4953338;28;8371;-83
2023/04/02 08:42:16;;;;;;;;;;;;;;;9.41;58.99;100797.59;4956516;28;8516;-83
2023/04/02 08:45:22;;;;;;;;;;;;;;;9.41;58.33;100801.00;4967052;28;7153;-82
2023/04/02 08:47:54;;;;;;;;;;;;;;;9.45;58.93;100814.88;4950927;28;8912;-83
2023/04/02 08:50:52;;;;;;;;;;;;;;;9.47;58.79;100821.00;4962032;28;7218;-82
2023/04/02 08:53:38;;;;;;;;;;;;;;;9.48;58.08;100830.44;4950435;28;9148;-83
2023/04/02 08:56:08;;;;;;;;;;;;;;;9.47;58.78;100827.75;4943791;28;6809;-82
2023/04/02 08:58:49;;;;;;;;;;;;;;;9.47;57.48;100838.00;4936400;28;8653;-83
2023/04/02 09:01:35;;;;;;;;;;;;;;;9.45;57.90;100843.91;4948680;28;8587;-82
2023/04/02 09:04:13;;;;;;;;;;;;;;;9.47;58.60;100849.13;4949846;28;8576;-82
2023/04/02 09:06:42;;;;;;;;;;;;;;;9.49;57.52;100846.66;4943309;28;8660;-82
2023/04/02 09:09:12;;;;;;;;;;;;;;;9.52;57.76;100855.38;4945392;28;6800;-81
2023/04/02 09:12:00;;;;;;;;;;;;;;;9.55;57.63;100859.81;4970464;28;7856;-81
2023/04/02 09:14:44;;;;;;;;;;;;;;;9.56;57.50;100859.91;4969184;28;6820;-82
2023/04/02 09:17:23;;;;;;;;;;;;;;;9.59;57.25;100870.31;4942866;28;8547;-82
2023/04/02 09:20:16;;;;;;;;;;;;;;;9.63;58.34;100873.94;4970542;28;6800;-83
2023/04/02 09:22:46;;;;;;;;;;;;;;;9.67;57.82;100882.69;4971532;28;7053;-82
2023/04/02 09:25:18;;;;;;;;;;;;;;;9.69;58.14;100881.97;4965861;28;6834;-82
2023/04/02 09:27:51;;;;;;;;;;;;;;;9.72;57.70;100882.19;4962765;28;6975;-81
2023/04/02 09:30:41;;;;;;;;;;;;;;;9.73;57.33;100883.94;4965073;28;7229;-82
2023/04/02 09:33:07;;;;;;;;;;;;;;;9.72;57.43;100884.75;4968428;28;6918;-82
2023/04/02 09:35:59;;;;;;;;;;;;;;;9.73;56.90;100890.72;4953303;28;8950;-83
2023/04/02 09:38:31;;;;;;;;;;;;;;;9.75;57.40;100893.38;4950822;28;7195;-82
2023/04/02 09:41:18;;;;;;;;;;;;;;;9.78;57.22;100899.56;4964734;28;8547;-81
2023/04/02 09:43:44;;;;;;;;;;;;;;;9.82;56.85;100901.50;4947649;28;8399;-82
2023/04/02 09:46:24;;;;;;;;;;;;;;;9.88;57.02;100912.91;4942847;28;8575;-81
2023/04/02 09:48:59;;;;;;;;;;;;;;;9.91;56.96;100918.22;4953001;28;7305;-81
2023/04/02 09:51:33;;;;;;;;;;;;;;;9.99;57.05;100922.09;4951096;28;6812;-81
2023/04/02 09:54:02;;;;;;;;;;;;;;;10.05;56.48;100931.81;4942868;28;8690;-83
2023/04/02 09:56:30;;;;;;;;;;;;;;;10.07;56.41;100933.69;4953110;28;7002;-81
2023/04/02 09:59:17;;;;;;;;;;;;;;;10.10;56.43;100946.66;4939756;28;8529;-82
2023/04/02 10:01:56;;;;;;;;;;;;;;;10.09;56.66;100946.56;4969600;28;6953;-81
2023/04/02 10:04:48;;;;;;;;;;;;;;;10.08;55.63;100948.25;4938033;28;8407;-82
2023/04/02 10:07:42;;;;;;;;;;;;;;;10.04;56.26;100960.78;4944965;28;6984;-81
2023/04/02 10:10:32;;;;;;;;;;;;;;;10.04;56.03;100964.22;4968704;28;6955;-83
2023/04/02 10:13:34;;;;;;;;;;;;;;;10.02;55.38;100973.50;4940091;28;7196;-81
2023/04/02 10:16:24;;;;;;;;;;;;;;;10.02;56.14;100978.63;4956944;28;7249;-81
2023/04/02 10:18:59;;;;;;;;;;;;;;;10.02;55.59;100977.75;4954122;28;8324;-82
2023/04/02 10:21:34;;;;;;;;;;;;;;;10.03;55.77;100987.19;4947906;28;8766;-81
2023/04/02 10:24:01;;;;;;;;;;;;;;;9.99;55.39;100993.81;4958199;28;8554;-81
2023/04/02 10:27:16;;;;;;;;;;;;;;;9.98;55.75;100995.47;4952765;28;7231;-81
2023/04/02 10:30:03;;;;;;;;;;;;;;;9.97;55.14;101005.66;4945598;28;8474;-82
2023/04/02 10:32:38;;;;;;;;;;;;;;;9.97;55.83;100995.41;4951763;28;7388;-82
2023/04/02 10:35:12;;;;;;;;;;;;;;;9.96;55.38;101004.75;4968836;28;6816;-82
2023/04/02 10:37:44;;;;;;;;;;;;;;;9.97;55.85;101006.50;4942270;28;6852;-82
2023/04/02 10:40:26;;;;;;;;;;;;;;;10.00;55.83;101005.81;4965137;28;7397;-81
2023/04/02 10:43:05;;;;;;;;;;;;;;;10.04;55.63;101015.44;4964466;28;7028;-81
2023/04/02 10:46:03;;;;;;;;;;;;;;;10.07;55.16;101017.31;4964997;28;7199;-82
2023/04/02 10:48:33;;;;;;;;;;;;;;;10.12;55.17;101021.06;4918970;28;7240;-81
2023/04/02 10:51:28;;;;;;;;;;;;;;;10.18;55.54;101018.84;4953773;28;8588;-81
2023/04/02 10:54:08;;;;;;;;;;;;;;;10.24;55.17;101026.03;4953720;28;8517;-81
2023/04/02 10:56:36;;;;;;;;;;;;;;;10.24;54.90;101024.34;4967412;28;7026;-81
2023/04/02 10:59:20;;;;;;;;;;;;;;;10.30;54.57;101028.06;4956094;28;8799;-81
2023/04/02 11:01:50;;;;;;;;;;;;;;;10.35;54.36;101035.22;4966963;28;8376;-82
2023/04/02 11:04:25;;;;;;;;;;;;;;;10.40;54.85;101026.13;4961106;28;8417;-83
2023/04/02 11:07:06;;;;;;;;;;;;;;;10.49;54.99;101025.81;4956876;28;8385;-82
2023/04/02 11:09:40;;;;;;;;;;;;;;;10.58;54.39;101035.72;4964659;28;6967;-82
2023/04/02 11:12:31;;;;;;;;;;;;;;;10.67;54.60;101041.38;4936155;28;8438;-81
2023/04/02 11:14:59;;;;;;;;;;;;;;;10.79;54.54;101037.75;4968824;28;8413;-82
2023/04/02 11:17:25;;;;;;;;;;;;;;;10.89;54.37;101049.44;4962587;28;6811;-82
2023/04/02 11:19:51;;;;;;;;;;;;;;;10.96;53.42;101042.16;4970154;28;6803;-82
2023/04/02 11:22:21;;;;;;;;;;;;;;;10.97;53.54;101054.19;4969202;28;6812;-81
2023/04/02 11:24:54;;;;;;;;;;;;;;;11.01;53.56;101059.47;4959579;28;7339;-81
2023/04/02 11:27:20;;;;;;;;;;;;;;;11.06;53.58;101063.19;4968345;28;8502;-82
2023/04/02 11:29:58;;;;;;;;;;;;;;;11.13;53.38;101062.75;4967960;28;6772;-81
2023/04/02 11:32:36;;;;;;;;;;;;;;;11.21;53.26;101076.00;4955973;28;7000;-82
2023/04/02 11:35:31;;;;;;;;;;;;;;;11.24;52.80;101071.94;4954932;28;8532;-82
2023/04/02 11:38:20;;;;;;;;;;;;;;;11.25;52.91;101081.41;4950085;28;8547;-81
2023/04/02 11:40:55;;;;;;;;;;;;;;;11.29;52.59;101076.41;4964669;28;8834;-81
2023/04/02 11:43:32;;;;;;;;;;;;;;;11.32;52.76;101090.31;4958085;28;7175;-81
2023/04/02 11:46:35;;;;;;;;;;;;;;;11.33;52.28;101089.50;4964705;28;6960;-82
2023/04/02 11:49:38;;;;;;;;;;;;;;;11.31;52.13;101095.38;4966385;28;8848;-83
2023/04/02 11:52:19;;;;;;;;;;;;;;;11.25;52.06;101104.50;4962904;28;7218;-81
2023/04/02 11:55:03;;;;;;;;;;;;;;;11.24;52.22;101110.44;4952059;28;9138;-82
2023/04/02 11:57:55;;;;;;;;;;;;;;;11.22;52.14;101114.59;4952192;28;8956;-82
2023/04/02 12:01:01;;;;;;;;;;;;;;;11.21;52.11;101120.53;4963714;28;7197;-82
2023/04/02 12:03:42;;;;;;;;;;;;;;;11.19;52.29;101111.81;4965818;28;7242;-82
2023/04/02 12:06:41;;;;;;;;;;;;;;;11.20;52.14;101118.75;4952072;28;8384;-81
2023/04/02 12:09:23;;;;;;;;;;;;;;;11.21;52.27;101110.25;4957819;28;8487;-82
2023/04/02 12:11:52;;;;;;;;;;;;;;;11.29;52.61;101114.91;4945264;28;8394;-81
2023/04/02 12:14:45;;;;;;;;;;;;;;;11.43;52.65;101111.47;4961923;28;7173;-81
2023/04/02 12:17:31;;;;;;;;;;;;;;;11.59;52.67;101120.91;4947077;28;7415;-82
2023/04/02 12:20:07;;;;;;;;;;;;;;;11.78;51.99;101127.94;4946057;28;7122;-82
2023/04/02 12:22:37;;;;;;;;;;;;;;;11.89;51.88;101127.63;4955804;28;6938;-81
2023/04/02 12:25:31;;;;;;;;;;;;;;;11.93;51.51;101129.56;4967119;28;8497;-82
2023/04/02 12:28:17;;;;;;;;;;;;;;;11.93;51.33;101133.03;4958935;28;8174;-84
2023/04/02 12:30:46;;;;;;;;;;;;;;;11.98;51.21;101137.50;4938215;28;8452;-84
2023/04/02 12:33:20;;;;;;;;;;;;;;;11.99;51.23;101136.72;4926132;28;8499;-81
2023/04/02 12:35:49;;;;;;;;;;;;;;;11.98;50.84;101143.56;4962527;28;6785;-82
2023/04/02 12:38:33;;;;;;;;;;;;;;;11.91;50.15;101156.84;4950201;28;8871;-82
2023/04/02 12:41:04;;;;;;;;;;;;;;;11.80;50.54;101146.88;4951148;28;8492;-81
2023/04/02 12:43:36;;;;;;;;;;;;;;;11.73;50.44;101157.59;4950127;28;8422;-81
2023/04/02 12:46:07;;;;;;;;;;;;;;;11.65;50.29;101158.84;4928792;28;9094;-81
2023/04/02 12:48:35;;;;;;;;;;;;;;;11.60;50.70;101163.75;4965945;28;6852;-81
2023/04/02 12:51:03;;;;;;;;;;;;;;;11.58;50.88;101175.63;4938701;28;8417;-82
2023/04/02 12:53:38;;;;;;;;;;;;;;;11.55;50.63;101174.56;4944536;28;8431;-81
2023/04/02 12:56:04;;;;;;;;;;;;;;;11.52;50.49;101183.84;4945388;28;8341;-82
2023/04/02 12:58:41;;;;;;;;;;;;;;;11.48;50.85;101181.03;4944701;28;8712;-82
2023/04/02 13:01:19;;;;;;;;;;;;;;;11.42;50.57;101186.69;4963297;28;8591;-82
2023/04/02 13:04:11;;;;;;;;;;;;;;;11.36;50.61;101192.38;4974017;28;8498;-82
2023/04/02 13:06:40;;;;;;;;;;;;;;;11.34;50.56;101193.06;4951402;28;8513;-84
2023/04/02 13:09:44;;;;;;;;;;;;;;;11.38;51.25;101184.75;4962183;28;8738;-83
2023/04/02 13:12:35;;;;;;;;;;;;;;;11.43;50.86;101183.34;4970439;28;8481;-83
2023/04/02 13:15:16;;;;;;;;;;;;;;;11.49;50.65;101183.69;4962030;28;8781;-82
2023/04/02 13:17:49;;;;;;;;;;;;;;;11.54;50.85;101186.53;4958081;28;6952;-82
2023/04/02 13:20:31;;;;;;;;;;;;;;;11.56;50.44;101191.72;4929335;28;8801;-82
2023/04/02 13:23:01;;;;;;;;;;;;;;;11.56;50.74;101195.19;4952081;28;8652;-82
2023/04/02 13:25:35;;;;;;;;;;;;;;;11.60;50.34;101196.25;4940611;28;8481;-82
2023/04/02 13:28:01;;;;;;;;;;;;;;;11.62;49.94;101205.78;4969069;28;7124;-82
2023/04/02 13:30:28;;;;;;;;;;;;;;;11.63;50.23;101206.69;4953177;28;8390;-81
2023/04/02 13:32:55;;;;;;;;;;;;;;;11.62;50.11;101213.50;4958145;28;8438;-81
2023/04/02 13:35:21;;;;;;;;;;;;;;;11.60;49.63;101214.22;4967437;28;6966;-81
2023/04/02 13:37:47;;;;;;;;;;;;;;;11.59;50.10;101222.69;4944555;28;8440;-82
2023/04/02 13:40:18;;;;;;;;;;;;;;;11.57;49.48;101214.03;4967403;28;7205;-82
2023/04/02 13:42:45;;;;;;;;;;;;;;;11.54;50.46;101212.19;4934494;28;8837;-82
2023/04/02 13:45:36;;;;;;;;;;;;;;;11.49;50.22;101206.78;4950851;28;6941;-82
2023/04/02 13:48:03;;;;;;;;;;;;;;;11.44;49.69;101210.78;4934342;28;8323;-82
2023/04/02 13:50:32;;;;;;;;;;;;;;;11.43;50.20;101216.69;4941694;28;8428;-82